createdAt,value
2023-02-27T00:00:02.129Z,100220.91
2023-02-27T00:02:28.797Z,100226.13
2023-02-27T00:04:58.046Z,100229.56
2023-02-27T00:07:26.108Z,100228.66
2023-02-27T00:09:53.370Z,100228.75
2023-02-27T00:12:20.166Z,100226.19
2023-02-27T00:14:46.740Z,100229.59
2023-02-27T00:17:13.116Z,100231.38
2023-02-27T00:19:39.723Z,100235.75
2023-02-27T00:22:06.109Z,100238.28
2023-02-27T00:24:34.103Z,100229.59
2023-02-27T00:27:01.009Z,100230.41
2023-02-27T00:29:27.806Z,100226.91
2023-02-27T00:31:55.052Z,100225.09
2023-02-27T00:34:21.606Z,100223.34
2023-02-27T00:36:48.106Z,100223.34
2023-02-27T00:39:15.751Z,100237.44
2023-02-27T00:41:42.334Z,100248.81
2023-02-27T00:44:09.132Z,100244.47
2023-02-27T00:46:35.856Z,100247.13
2023-02-27T00:49:02.377Z,100235.81
2023-02-27T00:51:29.084Z,100239.34
2023-02-27T00:53:55.540Z,100235.03
2023-02-27T00:56:22.158Z,100236.84
2023-02-27T00:58:48.668Z,100240.31
2023-02-27T01:01:16.392Z,100239.28
2023-02-27T01:03:42.918Z,100238.47
2023-02-27T01:06:09.576Z,100240.31
2023-02-27T01:08:36.064Z,100237.81
2023-02-27T01:11:02.441Z,100234.44
2023-02-27T01:13:29.061Z,100239.69
2023-02-27T01:15:55.435Z,100234.31
2023-02-27T01:18:22.257Z,100239.66
2023-02-27T01:20:55.349Z,100231.00
2023-02-27T01:23:22.990Z,100229.38
2023-02-27T01:25:49.762Z,100230.22
2023-02-27T01:28:17.384Z,100237.16
2023-02-27T01:30:44.216Z,100235.41
2023-02-27T01:33:11.075Z,100233.63
2023-02-27T01:35:37.834Z,100225.78
2023-02-27T01:38:04.398Z,100231.09
2023-02-27T01:40:36.442Z,100225.03
2023-02-27T01:43:03.730Z,100226.75
2023-02-27T01:45:31.908Z,100224.16
2023-02-27T01:48:13.424Z,100225.84
2023-02-27T01:50:46.425Z,100225.06
2023-02-27T01:53:14.966Z,100228.47
2023-02-27T01:55:42.196Z,100220.59
2023-02-27T01:58:11.461Z,100226.69
2023-02-27T02:00:39.108Z,100218.84
2023-02-27T02:03:38.003Z,100219.72
2023-02-27T02:06:07.089Z,100226.63
2023-02-27T02:08:39.458Z,100224.06
2023-02-27T02:11:07.732Z,100213.59
2023-02-27T02:13:34.836Z,100229.22
2023-02-27T02:16:06.886Z,100220.47
2023-02-27T02:18:47.919Z,100228.25
2023-02-27T02:21:52.814Z,100220.50
2023-02-27T02:24:56.710Z,100224.84
2023-02-27T02:27:37.731Z,100218.75
2023-02-27T02:30:25.732Z,100221.47
2023-02-27T02:33:23.195Z,100224.94
2023-02-27T02:35:49.565Z,100220.66
2023-02-27T02:39:10.191Z,100226.00
2023-02-27T02:42:13.864Z,100226.84
2023-02-27T02:44:43.133Z,100235.63
2023-02-27T02:47:21.778Z,100234.66
2023-02-27T02:49:59.783Z,100233.78
2023-02-27T02:52:45.640Z,100232.84
2023-02-27T02:55:33.339Z,100236.19
2023-02-27T02:58:33.749Z,100234.50
2023-02-27T03:01:12.895Z,100235.41
2023-02-27T03:04:09.531Z,100238.97
2023-02-27T03:06:47.730Z,100244.97
2023-02-27T03:09:41.130Z,100241.53
2023-02-27T03:12:11.009Z,100237.16
2023-02-27T03:14:44.677Z,100238.88
2023-02-27T03:17:20.983Z,100240.66
2023-02-27T03:19:57.307Z,100247.69
2023-02-27T03:22:31.372Z,100242.34
2023-02-27T03:25:01.128Z,100245.78
2023-02-27T03:27:35.327Z,100249.38
2023-02-27T03:30:29.708Z,100245.91
2023-02-27T03:33:08.328Z,100251.13
2023-02-27T03:35:44.075Z,100252.03
2023-02-27T03:38:41.149Z,100242.47
2023-02-27T03:41:31.899Z,100245.94
2023-02-27T03:44:13.356Z,100241.66
2023-02-27T03:46:40.609Z,100245.16
2023-02-27T03:49:07.302Z,100243.41
2023-02-27T03:51:36.204Z,100246.06
2023-02-27T03:54:02.545Z,100253.94
2023-02-27T03:56:58.809Z,100247.00
2023-02-27T03:59:26.065Z,100254.84
2023-02-27T04:01:54.229Z,100256.56
2023-02-27T04:04:21.640Z,100259.19
2023-02-27T04:07:16.006Z,100254.84
2023-02-27T04:09:42.318Z,100267.06
2023-02-27T04:12:24.114Z,100273.16
2023-02-27T04:15:03.862Z,100267.06
2023-02-27T04:17:33.012Z,100274.94
2023-02-27T04:20:10.388Z,100277.56
2023-02-27T04:22:48.791Z,100283.63
2023-02-27T04:25:27.256Z,100287.06
2023-02-27T04:28:08.104Z,100282.72
2023-02-27T04:30:34.460Z,100282.72
2023-02-27T04:33:09.668Z,100288.91
2023-02-27T04:35:40.981Z,100282.91
2023-02-27T04:38:17.240Z,100282.03
2023-02-27T04:40:50.194Z,100280.22
2023-02-27T04:43:20.702Z,100295.84
2023-02-27T04:45:49.738Z,100294.97
2023-02-27T04:48:29.252Z,100300.25
2023-02-27T04:51:12.365Z,100303.88
2023-02-27T04:53:51.242Z,100296.06
2023-02-27T04:56:25.035Z,100297.00
2023-02-27T04:58:57.129Z,100300.59
2023-02-27T05:01:37.085Z,100299.78
2023-02-27T05:04:07.217Z,100299.84
2023-02-27T05:06:36.618Z,100300.66
2023-02-27T05:09:13.864Z,100297.25
2023-02-27T05:11:54.656Z,100296.25
2023-02-27T05:14:31.513Z,100306.81
2023-02-27T05:17:22.577Z,100311.09
2023-02-27T05:19:49.570Z,100301.50
2023-02-27T05:22:39.807Z,100305.88
2023-02-27T05:25:13.280Z,100313.72
2023-02-27T05:27:50.636Z,100316.41
2023-02-27T05:30:27.355Z,100314.75
2023-02-27T05:33:24.874Z,100307.00
2023-02-27T05:36:01.475Z,100315.72
2023-02-27T05:38:31.684Z,100309.69
2023-02-27T05:41:09.248Z,100313.19
2023-02-27T05:43:42.313Z,100318.44
2023-02-27T05:46:17.919Z,100307.91
2023-02-27T05:48:50.937Z,100312.28
2023-02-27T05:51:19.403Z,100316.56
2023-02-27T05:53:51.011Z,100313.13
2023-02-27T05:56:21.414Z,100320.91
2023-02-27T05:58:55.909Z,100319.03
2023-02-27T06:01:22.554Z,100318.16
2023-02-27T06:03:49.081Z,100328.56
2023-02-27T06:06:18.932Z,100326.81
2023-02-27T06:08:46.346Z,100320.81
2023-02-27T06:11:13.189Z,100319.09
2023-02-27T06:13:41.949Z,100319.81
2023-02-27T06:16:11.819Z,100319.72
2023-02-27T06:18:38.602Z,100333.63
2023-02-27T06:21:05.530Z,100324.84
2023-02-27T06:23:32.073Z,100332.78
2023-02-27T06:25:58.697Z,100331.03
2023-02-27T06:28:25.605Z,100327.63
2023-02-27T06:30:56.033Z,100330.25
2023-02-27T06:33:26.293Z,100331.22
2023-02-27T06:35:53.229Z,100333.75
2023-02-27T06:38:19.860Z,100339.84
2023-02-27T06:40:46.589Z,100343.25
2023-02-27T06:43:13.055Z,100342.34
2023-02-27T06:45:39.439Z,100348.47
2023-02-27T06:48:06.283Z,100353.63
2023-02-27T06:50:32.831Z,100368.47
2023-02-27T06:53:00.031Z,100357.13
2023-02-27T06:55:26.589Z,100360.59
2023-02-27T06:57:53.135Z,100358.00
2023-02-27T07:00:19.975Z,100359.75
2023-02-27T07:02:46.736Z,100360.56
2023-02-27T07:05:13.276Z,100361.28
2023-02-27T07:07:40.233Z,100367.34
2023-02-27T07:10:11.106Z,100365.63
2023-02-27T07:12:38.524Z,100364.72
2023-02-27T07:15:06.051Z,100379.53
2023-02-27T07:17:33.633Z,100375.13
2023-02-27T07:20:00.057Z,100377.72
2023-02-27T07:22:26.568Z,100381.22
2023-02-27T07:24:52.956Z,100377.63
2023-02-27T07:27:19.441Z,100382.84
2023-02-27T07:29:46.293Z,100388.84
2023-02-27T07:32:12.874Z,100396.56
2023-02-27T07:34:39.601Z,100392.97
2023-02-27T07:37:06.007Z,100390.25
2023-02-27T07:39:32.406Z,100403.19
2023-02-27T07:41:58.870Z,100410.06
2023-02-27T07:44:25.868Z,100399.50
2023-02-27T07:46:52.826Z,100400.19
2023-02-27T07:49:19.399Z,100407.00
2023-02-27T07:51:45.829Z,100412.94
2023-02-27T07:54:12.823Z,100411.00
2023-02-27T07:56:39.262Z,100421.44
2023-02-27T07:59:06.811Z,100415.19
2023-02-27T08:01:33.749Z,100410.78
2023-02-27T08:04:00.147Z,100412.38
2023-02-27T08:06:27.268Z,100411.28
2023-02-27T08:08:54.074Z,100418.13
2023-02-27T08:11:20.702Z,100405.84
2023-02-27T08:13:59.941Z,100406.56
2023-02-27T08:16:28.151Z,100404.75
2023-02-27T08:18:54.894Z,100411.53
2023-02-27T08:21:21.411Z,100402.59
2023-02-27T08:23:47.950Z,100404.28
2023-02-27T08:26:14.714Z,100402.25
2023-02-27T08:28:41.285Z,100402.75
2023-02-27T08:31:07.998Z,100404.50
2023-02-27T08:33:35.009Z,100391.50
2023-02-27T08:36:02.092Z,100394.31
2023-02-27T08:38:29.795Z,100389.25
2023-02-27T08:40:56.210Z,100388.91
2023-02-27T08:43:23.565Z,100378.69
2023-02-27T08:45:50.690Z,100373.97
2023-02-27T08:48:18.389Z,100371.91
2023-02-27T08:50:46.233Z,100370.81
2023-02-27T08:53:13.597Z,100368.91
2023-02-27T08:55:40.276Z,100375.72
2023-02-27T08:58:08.430Z,100387.59
2023-02-27T09:00:34.850Z,100380.34
2023-02-27T09:03:01.541Z,100377.38
2023-02-27T09:05:29.445Z,100382.66
2023-02-27T09:07:56.021Z,100378.94
2023-02-27T09:10:22.626Z,100377.16
2023-02-27T09:12:49.224Z,100380.44
2023-02-27T09:15:16.260Z,100384.56
2023-02-27T09:17:43.983Z,100385.41
2023-02-27T09:20:11.734Z,100382.53
2023-02-27T09:22:38.824Z,100390.41
2023-02-27T09:25:06.485Z,100383.06
2023-02-27T09:27:33.877Z,100386.47
2023-02-27T09:30:00.522Z,100386.44
2023-02-27T09:32:28.154Z,100380.13
2023-02-27T09:34:55.406Z,100386.91
2023-02-27T09:37:24.840Z,100390.06
2023-02-27T09:39:51.978Z,100386.41
2023-02-27T09:42:22.590Z,100380.94
2023-02-27T09:44:52.271Z,100374.56
2023-02-27T09:47:37.195Z,100383.84
2023-02-27T09:50:06.186Z,100391.78
2023-02-27T09:52:36.304Z,100387.19
2023-02-27T09:55:06.121Z,100389.72
2023-02-27T09:57:56.255Z,100391.88
2023-02-27T10:00:31.545Z,100397.97
2023-02-27T10:03:39.739Z,100387.06
2023-02-27T10:06:07.204Z,100380.38
2023-02-27T10:09:02.845Z,100394.16
2023-02-27T10:11:57.547Z,100390.47
2023-02-27T10:14:45.587Z,100404.63
2023-02-27T10:17:22.024Z,100407.22
2023-02-27T10:19:51.220Z,100405.09
2023-02-27T10:22:30.501Z,100405.66
2023-02-27T10:25:08.986Z,100400.53
2023-02-27T10:27:39.729Z,100411.81
2023-02-27T10:30:29.586Z,100401.06
2023-02-27T10:33:32.031Z,100403.31
2023-02-27T10:36:00.775Z,100388.94
2023-02-27T10:38:29.242Z,100394.66
2023-02-27T10:40:57.895Z,100385.66
2023-02-27T10:43:24.493Z,100388.69
2023-02-27T10:45:54.311Z,100390.56
2023-02-27T10:48:22.528Z,100385.78
2023-02-27T10:50:52.090Z,100380.25
2023-02-27T10:53:18.871Z,100380.97
2023-02-27T10:56:11.179Z,100374.63
2023-02-27T10:58:38.115Z,100378.09
2023-02-27T11:01:07.091Z,100375.16
2023-02-27T11:03:40.907Z,100368.22
2023-02-27T11:06:24.759Z,100365.84
2023-02-27T11:09:18.647Z,100350.72
2023-02-27T11:11:45.257Z,100338.66
2023-02-27T11:14:31.269Z,100344.81
2023-02-27T11:17:00.659Z,100336.03
2023-02-27T11:19:34.699Z,100342.13
2023-02-27T11:22:04.678Z,100336.41
2023-02-27T11:24:32.241Z,100327.94
2023-02-27T11:27:05.205Z,100325.94
2023-02-27T11:29:33.911Z,100316.19
2023-02-27T11:32:04.974Z,100309.53
2023-02-27T11:34:39.348Z,100309.97
2023-02-27T11:37:19.219Z,100301.03
2023-02-27T11:39:51.652Z,100308.84
2023-02-27T11:42:32.252Z,100303.84
2023-02-27T11:45:08.108Z,100296.81
2023-02-27T11:47:39.214Z,100305.63
2023-02-27T11:50:21.648Z,100289.38
2023-02-27T11:52:52.934Z,100295.78
2023-02-27T11:55:24.574Z,100292.66
2023-02-27T11:57:59.644Z,100298.03
2023-02-27T12:00:31.102Z,100285.91
2023-02-27T12:03:16.236Z,100295.84
2023-02-27T12:05:59.842Z,100289.38
2023-02-27T12:08:35.304Z,100284.84
2023-02-27T12:11:22.342Z,100293.66
2023-02-27T12:13:57.113Z,100286.34
2023-02-27T12:16:32.690Z,100288.84
2023-02-27T12:19:11.918Z,100282.06
2023-02-27T12:21:44.167Z,100276.19
2023-02-27T12:24:36.120Z,100270.34
2023-02-27T12:27:53.392Z,100276.38
2023-02-27T12:30:25.289Z,100268.38
2023-02-27T12:33:03.484Z,100271.03
2023-02-27T12:35:33.021Z,100260.13
2023-02-27T12:38:01.309Z,100257.59
2023-02-27T12:40:46.847Z,100253.41
2023-02-27T12:43:38.010Z,100259.19
2023-02-27T12:46:28.713Z,100258.16
2023-02-27T12:49:42.981Z,100242.00
2023-02-27T12:52:38.662Z,100260.53
2023-02-27T12:55:20.841Z,100255.78
2023-02-27T12:58:06.297Z,100256.09
2023-02-27T13:00:41.519Z,100241.22
2023-02-27T13:03:31.680Z,100235.84
2023-02-27T13:06:15.205Z,100249.63
2023-02-27T13:08:51.307Z,100241.69
2023-02-27T13:11:29.322Z,100228.31
2023-02-27T13:14:14.817Z,100235.22
2023-02-27T13:16:46.771Z,100241.84
2023-02-27T13:19:22.872Z,100234.53
2023-02-27T13:21:57.704Z,100237.38
2023-02-27T13:24:32.660Z,100235.34
2023-02-27T13:27:06.538Z,100238.81
2023-02-27T13:29:38.372Z,100229.03
2023-02-27T13:32:43.536Z,100232.47
2023-02-27T13:35:29.785Z,100226.50
2023-02-27T13:38:01.839Z,100226.22
2023-02-27T13:40:36.535Z,100218.75
2023-02-27T13:43:33.062Z,100225.69
2023-02-27T13:46:23.004Z,100227.50
2023-02-27T13:48:53.582Z,100225.22
2023-02-27T13:51:35.092Z,100231.84
2023-02-27T13:54:07.669Z,100229.72
2023-02-27T13:56:35.222Z,100234.91
2023-02-27T13:59:33.606Z,100227.13
2023-02-27T14:02:03.404Z,100241.78
2023-02-27T14:04:34.162Z,100242.09
2023-02-27T14:07:11.671Z,100245.84
2023-02-27T14:09:44.292Z,100234.88
2023-02-27T14:12:45.493Z,100247.19
2023-02-27T14:15:24.798Z,100241.25
2023-02-27T14:18:09.652Z,100244.47
2023-02-27T14:20:40.972Z,100253.31
2023-02-27T14:23:26.043Z,100243.75
2023-02-27T14:25:58.214Z,100234.69
2023-02-27T14:28:33.857Z,100241.03
2023-02-27T14:31:18.255Z,100238.81
2023-02-27T14:33:48.344Z,100235.66
2023-02-27T14:36:21.700Z,100234.69
2023-02-27T14:38:50.385Z,100242.38
2023-02-27T14:41:35.492Z,100237.28
2023-02-27T14:44:02.859Z,100245.66
2023-02-27T14:46:32.408Z,100234.94
2023-02-27T14:49:05.538Z,100239.03
2023-02-27T14:51:34.865Z,100239.47
2023-02-27T14:54:16.350Z,100246.16
2023-02-27T14:56:54.222Z,100246.16
2023-02-27T14:59:43.993Z,100250.13
2023-02-27T15:02:27.451Z,100252.69
2023-02-27T15:05:14.020Z,100240.63
2023-02-27T15:07:40.713Z,100247.53
2023-02-27T15:10:09.988Z,100253.13
2023-02-27T15:12:38.022Z,100240.97
2023-02-27T15:15:07.650Z,100254.16
2023-02-27T15:17:38.495Z,100255.81
2023-02-27T15:20:22.286Z,100263.81
2023-02-27T15:22:48.747Z,100256.59
2023-02-27T15:25:27.857Z,100260.44
2023-02-27T15:27:57.871Z,100259.53
2023-02-27T15:30:24.645Z,100257.25
2023-02-27T15:32:51.328Z,100253.53
2023-02-27T15:35:23.437Z,100258.84
2023-02-27T15:37:56.020Z,100265.81
2023-02-27T15:40:25.928Z,100264.50
2023-02-27T15:42:54.241Z,100263.47
2023-02-27T15:45:26.282Z,100272.75
2023-02-27T15:47:53.043Z,100274.44
2023-02-27T15:50:19.419Z,100263.88
2023-02-27T15:53:03.343Z,100261.91
2023-02-27T15:55:34.253Z,100264.88
2023-02-27T15:58:03.496Z,100263.25
2023-02-27T16:00:33.185Z,100274.88
2023-02-27T16:03:00.991Z,100267.69
2023-02-27T16:05:36.971Z,100272.53
2023-02-27T16:08:06.580Z,100277.09
2023-02-27T16:10:52.094Z,100269.97
2023-02-27T16:13:28.136Z,100273.72
2023-02-27T16:16:21.129Z,100284.97
2023-02-27T16:18:52.559Z,100278.47
2023-02-27T16:21:22.472Z,100285.13
2023-02-27T16:23:49.848Z,100289.16
2023-02-27T16:26:39.080Z,100296.31
2023-02-27T16:29:33.506Z,100289.03
2023-02-27T16:32:00.604Z,100286.63
2023-02-27T16:34:44.734Z,100289.72
2023-02-27T16:37:30.339Z,100287.44
2023-02-27T16:39:56.704Z,100302.97
2023-02-27T16:42:23.587Z,100298.31
2023-02-27T16:44:49.991Z,100302.72
2023-02-27T16:47:16.517Z,100305.56
2023-02-27T16:49:44.322Z,100299.28
2023-02-27T16:52:11.533Z,100304.91
2023-02-27T16:54:38.422Z,100302.00
2023-02-27T16:57:05.723Z,100304.97
2023-02-27T16:59:35.994Z,100307.84
2023-02-27T17:02:05.346Z,100313.94
2023-02-27T17:04:32.399Z,100320.72
2023-02-27T17:07:00.957Z,100318.97
2023-02-27T17:09:28.247Z,100322.28
2023-02-27T17:11:55.842Z,100330.38
2023-02-27T17:14:23.904Z,100329.00
2023-02-27T17:16:50.382Z,100331.34
2023-02-27T17:19:17.000Z,100336.09
2023-02-27T17:21:43.552Z,100342.47
2023-02-27T17:24:11.055Z,100335.25
2023-02-27T17:26:37.905Z,100345.06
2023-02-27T17:29:04.835Z,100345.78
2023-02-27T17:31:32.494Z,100341.50
2023-02-27T17:33:58.953Z,100349.47
2023-02-27T17:36:26.281Z,100349.22
2023-02-27T17:39:02.746Z,100350.94
2023-02-27T17:41:31.786Z,100362.44
2023-02-27T17:43:59.265Z,100365.59
2023-02-27T17:46:27.808Z,100355.81
2023-02-27T17:48:59.850Z,100362.00
2023-02-27T17:51:29.836Z,100366.28
2023-02-27T17:53:57.370Z,100368.19
2023-02-27T17:56:24.175Z,100379.34
2023-02-27T17:58:51.233Z,100366.00
2023-02-27T18:01:22.771Z,100378.47
2023-02-27T18:03:50.170Z,100380.81
2023-02-27T18:06:17.744Z,100384.56
2023-02-27T18:08:44.632Z,100379.91
2023-02-27T18:11:13.224Z,100377.09
2023-02-27T18:13:41.381Z,100381.16
2023-02-27T18:16:09.151Z,100393.00
2023-02-27T18:18:40.614Z,100390.75
2023-02-27T18:21:10.868Z,100393.03
2023-02-27T18:23:38.225Z,100391.72
2023-02-27T18:26:05.048Z,100403.66
2023-02-27T18:28:31.904Z,100397.06
2023-02-27T18:30:58.652Z,100392.81
2023-02-27T18:33:25.929Z,100396.66
2023-02-27T18:35:52.360Z,100394.38
2023-02-27T18:38:19.213Z,100395.66
2023-02-27T18:40:45.735Z,100402.88
2023-02-27T18:43:13.849Z,100397.91
2023-02-27T18:45:40.936Z,100390.22
2023-02-27T18:48:07.957Z,100384.34
2023-02-27T18:50:34.477Z,100396.00
2023-02-27T18:53:01.412Z,100399.69
2023-02-27T18:55:28.107Z,100397.19
2023-02-27T18:57:54.679Z,100399.38
2023-02-27T19:00:24.280Z,100399.59
2023-02-27T19:02:50.981Z,100397.16
2023-02-27T19:05:17.625Z,100391.22
2023-02-27T19:07:44.189Z,100397.53
2023-02-27T19:10:12.227Z,100402.00
2023-02-27T19:12:38.679Z,100397.66
2023-02-27T19:15:05.662Z,100400.50
2023-02-27T19:17:33.396Z,100401.38
2023-02-27T19:20:00.059Z,100406.81
2023-02-27T19:22:29.385Z,100402.63
2023-02-27T19:24:58.812Z,100402.66
2023-02-27T19:27:26.130Z,100399.28
2023-02-27T19:29:52.549Z,100411.66
2023-02-27T19:32:20.577Z,100406.63
2023-02-27T19:34:47.137Z,100397.03
2023-02-27T19:37:15.869Z,100405.97
2023-02-27T19:39:42.429Z,100413.03
2023-02-27T19:42:09.105Z,100416.75
2023-02-27T19:44:35.951Z,100416.75
2023-02-27T19:47:02.852Z,100418.66
2023-02-27T19:49:29.519Z,100418.78
2023-02-27T19:51:56.061Z,100421.63
2023-02-27T19:54:22.994Z,100419.03
2023-02-27T19:56:49.599Z,100422.31
2023-02-27T19:59:17.767Z,100418.84
2023-02-27T20:01:44.404Z,100419.78
2023-02-27T20:04:11.873Z,100427.69
2023-02-27T20:06:43.799Z,100426.09
2023-02-27T20:09:14.833Z,100423.59
2023-02-27T20:11:43.348Z,100425.47
2023-02-27T20:14:10.837Z,100429.84
2023-02-27T20:16:37.610Z,100430.19
2023-02-27T20:19:04.951Z,100440.00
2023-02-27T20:21:33.118Z,100437.44
2023-02-27T20:24:00.741Z,100434.75
2023-02-27T20:26:33.505Z,100434.78
2023-02-27T20:29:07.750Z,100436.44
2023-02-27T20:31:36.024Z,100434.59
2023-02-27T20:34:05.855Z,100443.38
2023-02-27T20:36:35.650Z,100440.59
2023-02-27T20:39:02.750Z,100439.59
2023-02-27T20:41:30.023Z,100437.91
2023-02-27T20:43:57.103Z,100437.88
2023-02-27T20:46:27.817Z,100434.34
2023-02-27T20:49:00.788Z,100435.38
2023-02-27T20:51:35.048Z,100431.78
2023-02-27T20:54:03.186Z,100437.09
2023-02-27T20:56:42.059Z,100439.44
2023-02-27T20:59:18.679Z,100434.22
2023-02-27T21:01:51.169Z,100430.63
2023-02-27T21:04:42.678Z,100437.63
2023-02-27T21:07:11.457Z,100435.94
2023-02-27T21:09:38.770Z,100444.63
2023-02-27T21:12:06.532Z,100434.97
2023-02-27T21:14:33.805Z,100431.53
2023-02-27T21:17:00.633Z,100437.56
2023-02-27T21:19:27.382Z,100439.41
2023-02-27T21:21:53.797Z,100429.75
2023-02-27T21:24:20.754Z,100436.75
2023-02-27T21:26:47.224Z,100428.75
2023-02-27T21:29:17.673Z,100440.91
2023-02-27T21:31:49.089Z,100440.91
2023-02-27T21:34:19.220Z,100438.28
2023-02-27T21:36:46.723Z,100433.13
2023-02-27T21:39:28.057Z,100439.47
2023-02-27T21:41:55.040Z,100432.59
2023-02-27T21:44:25.124Z,100432.72
2023-02-27T21:46:53.297Z,100428.41
2023-02-27T21:49:22.662Z,100426.81
2023-02-27T21:51:49.412Z,100428.59
2023-02-27T21:54:17.402Z,100429.56
2023-02-27T21:56:45.764Z,100422.56
2023-02-27T21:59:12.791Z,100422.78
2023-02-27T22:01:39.433Z,100423.84
2023-02-27T22:04:06.379Z,100423.78
2023-02-27T22:06:34.086Z,100423.63
2023-02-27T22:09:04.754Z,100420.13
2023-02-27T22:11:32.881Z,100429.84
2023-02-27T22:13:59.559Z,100431.78
2023-02-27T22:16:26.052Z,100431.91
2023-02-27T22:18:52.528Z,100436.25
2023-02-27T22:21:22.861Z,100435.47
2023-02-27T22:23:50.423Z,100434.63
2023-02-27T22:26:25.782Z,100442.34
2023-02-27T22:28:52.731Z,100440.72
2023-02-27T22:31:24.996Z,100434.63
2023-02-27T22:33:54.307Z,100431.88
2023-02-27T22:36:26.929Z,100436.28
2023-02-27T22:38:54.136Z,100440.69
2023-02-27T22:41:23.413Z,100434.63
2023-02-27T22:43:51.240Z,100427.63
2023-02-27T22:46:24.889Z,100443.38
2023-02-27T22:48:56.264Z,100439.94
2023-02-27T22:51:25.301Z,100441.59
2023-02-27T22:53:51.968Z,100440.94
2023-02-27T22:56:18.472Z,100445.31
2023-02-27T22:58:45.278Z,100447.91
2023-02-27T23:01:21.105Z,100460.16
2023-02-27T23:03:49.381Z,100457.69
2023-02-27T23:06:19.623Z,100453.25
2023-02-27T23:08:46.942Z,100456.81
2023-02-27T23:11:14.902Z,100457.75
2023-02-27T23:13:41.585Z,100457.03
2023-02-27T23:16:12.396Z,100454.50
2023-02-27T23:18:43.555Z,100453.03
2023-02-27T23:21:10.593Z,100463.44
2023-02-27T23:23:37.248Z,100465.38
2023-02-27T23:26:05.793Z,100468.06
2023-02-27T23:28:33.813Z,100472.47
2023-02-27T23:31:00.824Z,100470.69
2023-02-27T23:33:29.325Z,100476.00
2023-02-27T23:35:57.589Z,100476.91
2023-02-27T23:38:25.184Z,100478.69
2023-02-27T23:40:52.494Z,100480.25
2023-02-27T23:43:18.869Z,100486.28
2023-02-27T23:45:45.660Z,100483.00
2023-02-27T23:48:12.706Z,100482.19
2023-02-27T23:50:44.124Z,100478.06
2023-02-27T23:53:13.774Z,100479.78
2023-02-27T23:55:40.895Z,100478.94
2023-02-27T23:58:10.132Z,100478.84
